createdAt,value
2023-03-17T00:01:45.029Z,-4.85
2023-03-17T00:04:46.609Z,-4.88
2023-03-17T00:07:48.388Z,-4.88
2023-03-17T00:10:51.132Z,-4.91
2023-03-17T00:13:52.840Z,-4.90
2023-03-17T00:16:54.360Z,-4.87
2023-03-17T00:19:56.099Z,-4.87
2023-03-17T00:22:59.355Z,-4.91
2023-03-17T00:26:00.957Z,-4.94
2023-03-17T00:29:02.571Z,-4.96
2023-03-17T00:32:04.415Z,-4.97
2023-03-17T00:35:14.237Z,-4.93
2023-03-17T00:38:17.518Z,-4.92
2023-03-17T00:41:19.832Z,-4.94
2023-03-17T00:44:21.427Z,-4.99
2023-03-17T00:47:22.934Z,-5.05
2023-03-17T00:50:28.609Z,-5.11
2023-03-17T00:53:30.568Z,-5.16
2023-03-17T00:56:32.053Z,-5.21
2023-03-17T00:59:39.451Z,-5.28
2023-03-17T01:02:40.952Z,-5.33
2023-03-17T01:05:42.723Z,-5.37
2023-03-17T01:08:44.452Z,-5.40
2023-03-17T01:11:46.621Z,-5.43
2023-03-17T01:14:48.232Z,-5.49
2023-03-17T01:17:50.717Z,-5.55
2023-03-17T01:20:52.348Z,-5.59
2023-03-17T01:23:55.874Z,-5.60
2023-03-17T01:26:57.910Z,-5.61
2023-03-17T01:29:59.446Z,-5.60
2023-03-17T01:33:01.319Z,-5.58
2023-03-17T01:36:03.089Z,-5.57
2023-03-17T01:39:04.818Z,-5.58
2023-03-17T01:42:06.785Z,-5.55
2023-03-17T01:45:47.498Z,-5.54
2023-03-17T01:49:24.777Z,-5.55
2023-03-17T01:52:27.189Z,-5.57
2023-03-17T01:55:28.795Z,-5.61
2023-03-17T01:58:31.469Z,-5.65
2023-03-17T02:01:41.660Z,-5.65
2023-03-17T02:04:43.238Z,-5.64
2023-03-17T02:07:45.132Z,-5.65
2023-03-17T02:10:48.554Z,-5.64
2023-03-17T02:13:50.325Z,-5.65
2023-03-17T02:16:52.037Z,-5.67
2023-03-17T02:19:54.591Z,-5.70
2023-03-17T02:22:56.608Z,-5.74
2023-03-17T02:25:58.277Z,-5.75
2023-03-17T02:29:00.129Z,-5.75
2023-03-17T02:32:02.662Z,-5.77
2023-03-17T02:35:06.882Z,-5.79
2023-03-17T02:38:08.673Z,-5.80
2023-03-17T02:41:10.630Z,-5.83
2023-03-17T02:44:12.303Z,-5.85
2023-03-17T02:47:14.692Z,-5.86
2023-03-17T02:50:22.437Z,-5.87
2023-03-17T02:53:23.990Z,-5.88
2023-03-17T02:56:25.590Z,-5.90
2023-03-17T02:59:27.557Z,-5.93
2023-03-17T03:02:29.337Z,-5.98
2023-03-17T03:05:31.005Z,-6.02
2023-03-17T03:08:32.612Z,-6.06
2023-03-17T03:11:34.404Z,-6.09
2023-03-17T03:14:36.130Z,-6.10
2023-03-17T03:17:37.820Z,-6.13
2023-03-17T03:20:42.796Z,-6.15
2023-03-17T03:23:44.495Z,-6.16
2023-03-17T03:26:46.082Z,-6.15
2023-03-17T03:29:47.642Z,-6.11
2023-03-17T03:32:49.489Z,-6.01
2023-03-17T03:35:51.104Z,-5.94
2023-03-17T03:38:52.659Z,-5.91
2023-03-17T03:41:54.503Z,-5.90
2023-03-17T03:44:55.954Z,-5.90
2023-03-17T03:47:57.590Z,-5.92
2023-03-17T03:51:00.670Z,-5.95
2023-03-17T03:54:02.231Z,-5.96
2023-03-17T03:57:03.965Z,-5.91
2023-03-17T04:00:06.890Z,-5.87
2023-03-17T04:03:08.896Z,-5.83
2023-03-17T04:06:10.588Z,-5.81
2023-03-17T04:09:12.136Z,-5.78
2023-03-17T04:12:13.718Z,-5.76
2023-03-17T04:15:17.050Z,-5.77
2023-03-17T04:18:18.598Z,-5.84
2023-03-17T04:21:20.186Z,-5.86
2023-03-17T04:24:21.830Z,-5.89
2023-03-17T04:27:23.714Z,-5.95
2023-03-17T04:30:25.347Z,-5.99
2023-03-17T04:33:27.054Z,-6.03
2023-03-17T04:36:28.792Z,-6.07
2023-03-17T04:39:30.340Z,-6.11
2023-03-17T04:42:31.906Z,-6.15
2023-03-17T04:45:33.598Z,-6.18
2023-03-17T04:48:35.614Z,-6.20
2023-03-17T04:51:37.219Z,-6.21
2023-03-17T04:54:38.928Z,-6.25
2023-03-17T04:57:40.710Z,-6.26
2023-03-17T05:00:43.006Z,-6.27
2023-03-17T05:03:44.601Z,-6.30
2023-03-17T05:06:46.387Z,-6.43
2023-03-17T05:09:47.993Z,-6.52
2023-03-17T05:12:49.557Z,-6.56
2023-03-17T05:15:52.583Z,-6.59
2023-03-17T05:18:57.341Z,-6.55
2023-03-17T05:21:59.182Z,-6.51
2023-03-17T05:25:00.750Z,-6.42
2023-03-17T05:28:03.030Z,-6.35
2023-03-17T05:31:04.755Z,-6.28
2023-03-17T05:34:06.573Z,-6.22
2023-03-17T05:37:08.300Z,-5.90
2023-03-17T05:40:11.576Z,-5.19
2023-03-17T05:43:13.220Z,-4.56
2023-03-17T05:46:15.295Z,-3.82
2023-03-17T05:49:16.992Z,-3.05
2023-03-17T05:52:18.751Z,-2.68
2023-03-17T05:55:20.419Z,-2.56
2023-03-17T05:58:22.065Z,-2.36
2023-03-17T06:01:23.608Z,-2.13
2023-03-17T06:04:25.282Z,-1.86
2023-03-17T06:07:27.023Z,-1.56
2023-03-17T06:10:30.359Z,-1.32
2023-03-17T06:13:32.395Z,-1.08
2023-03-17T06:16:34.012Z,-0.81
2023-03-17T06:19:35.756Z,-0.51
2023-03-17T06:22:37.455Z,-0.32
2023-03-17T06:25:39.193Z,-0.13
2023-03-17T06:28:40.797Z,0.27
2023-03-17T06:31:42.401Z,0.79
2023-03-17T06:34:44.313Z,1.39
2023-03-17T06:37:46.120Z,2.20
2023-03-17T06:40:47.628Z,2.96
2023-03-17T06:43:49.331Z,3.64
2023-03-17T06:46:50.927Z,4.16
2023-03-17T06:49:53.645Z,4.45
2023-03-17T06:52:55.247Z,5.13
2023-03-17T06:55:56.867Z,5.79
2023-03-17T06:58:59.029Z,6.39
2023-03-17T07:02:00.563Z,7.01
2023-03-17T07:05:02.318Z,7.56
2023-03-17T07:08:08.895Z,8.13
2023-03-17T07:11:10.525Z,8.54
2023-03-17T07:14:12.196Z,8.57
2023-03-17T07:17:14.671Z,8.78
2023-03-17T07:20:16.555Z,9.23
2023-03-17T07:23:22.305Z,9.16
2023-03-17T07:26:23.921Z,9.19
2023-03-17T07:29:25.566Z,9.02
2023-03-17T07:32:27.209Z,9.32
2023-03-17T07:35:29.473Z,9.67
2023-03-17T07:38:31.275Z,10.05
2023-03-17T07:41:33.060Z,10.10
2023-03-17T07:44:34.627Z,10.28
2023-03-17T07:47:36.233Z,10.36
2023-03-17T07:50:38.144Z,10.88
2023-03-17T07:53:39.995Z,11.27
2023-03-17T07:56:41.972Z,11.74
2023-03-17T07:59:43.573Z,11.93
2023-03-17T08:02:46.946Z,12.10
2023-03-17T08:05:53.901Z,12.32
2023-03-17T08:08:55.499Z,12.79
2023-03-17T08:11:56.999Z,12.97
2023-03-17T08:14:58.681Z,12.24
2023-03-17T08:18:00.356Z,11.78
2023-03-17T08:21:02.228Z,11.79
2023-03-17T08:24:03.914Z,11.85
2023-03-17T08:27:05.503Z,12.28
2023-03-17T08:30:07.937Z,13.03
2023-03-17T08:33:09.549Z,13.66
2023-03-17T08:36:11.228Z,14.00
2023-03-17T08:39:13.063Z,13.91
2023-03-17T08:42:14.734Z,13.68
2023-03-17T08:45:17.212Z,13.26
2023-03-17T08:48:20.135Z,12.74
2023-03-17T08:51:24.603Z,12.62
2023-03-17T08:54:26.404Z,12.84
2023-03-17T08:57:28.260Z,13.13
2023-03-17T09:00:30.185Z,13.07
2023-03-17T09:03:33.545Z,13.04
2023-03-17T09:06:35.179Z,12.93
2023-03-17T09:09:36.878Z,12.93
2023-03-17T09:12:38.429Z,12.96
2023-03-17T09:15:40.355Z,13.14
2023-03-17T09:18:42.547Z,13.43
2023-03-17T09:21:44.546Z,13.71
2023-03-17T09:24:46.238Z,14.03
2023-03-17T09:27:47.799Z,13.81
2023-03-17T09:30:49.562Z,13.89
2023-03-17T09:33:51.203Z,13.80
2023-03-17T09:36:56.041Z,14.00
2023-03-17T09:39:57.549Z,14.09
2023-03-17T09:43:21.175Z,13.70
2023-03-17T09:46:40.807Z,13.56
2023-03-17T09:49:51.556Z,14.22
2023-03-17T09:52:55.934Z,14.67
2023-03-17T09:55:58.442Z,14.45
2023-03-17T09:59:05.027Z,14.04
2023-03-17T10:02:18.669Z,14.46
2023-03-17T10:05:23.819Z,15.07
2023-03-17T10:08:32.186Z,15.29
2023-03-17T10:11:48.550Z,15.24
2023-03-17T10:15:05.863Z,14.99
2023-03-17T10:18:12.889Z,14.85
2023-03-17T10:21:18.943Z,14.87
2023-03-17T10:24:21.605Z,14.66
2023-03-17T10:27:23.289Z,14.01
2023-03-17T10:30:24.996Z,13.89
2023-03-17T10:33:26.700Z,13.75
2023-03-17T10:36:37.372Z,13.74
2023-03-17T10:39:45.546Z,14.25
2023-03-17T10:43:02.373Z,14.77
2023-03-17T10:46:24.741Z,14.74
2023-03-17T10:49:26.782Z,14.50
2023-03-17T10:52:30.981Z,14.55
2023-03-17T10:55:44.044Z,14.20
2023-03-17T10:58:49.095Z,14.11
2023-03-17T11:01:53.760Z,14.22
2023-03-17T11:05:02.811Z,14.70
2023-03-17T11:08:17.666Z,15.01
2023-03-17T11:11:31.067Z,15.12
2023-03-17T11:14:32.942Z,14.82
2023-03-17T11:17:53.595Z,14.63
2023-03-17T11:21:22.652Z,14.90
2023-03-17T11:24:32.230Z,14.41
2023-03-17T11:27:43.603Z,13.78
2023-03-17T11:31:06.778Z,13.49
2023-03-17T11:34:13.291Z,13.27
2023-03-17T11:37:26.125Z,13.46
2023-03-17T11:40:49.421Z,14.27
2023-03-17T11:44:00.975Z,15.05
2023-03-17T11:47:19.284Z,15.86
2023-03-17T11:50:27.459Z,15.54
2023-03-17T11:53:51.070Z,15.13
2023-03-17T11:56:56.257Z,15.08
2023-03-17T12:00:06.639Z,15.11
2023-03-17T12:03:16.814Z,15.04
2023-03-17T12:06:30.183Z,14.65
2023-03-17T12:09:37.144Z,14.34
2023-03-17T12:12:41.644Z,13.72
2023-03-17T12:15:48.291Z,13.39
2023-03-17T12:19:01.212Z,13.56
2023-03-17T12:22:22.958Z,13.81
2023-03-17T12:25:30.281Z,13.30
2023-03-17T12:28:46.888Z,12.98
2023-03-17T12:31:53.675Z,12.84
2023-03-17T12:35:00.551Z,12.81
2023-03-17T12:38:08.629Z,12.42
2023-03-17T12:41:15.394Z,12.25
2023-03-17T12:44:59.818Z,12.03
2023-03-17T12:48:23.564Z,11.86
2023-03-17T12:51:56.462Z,11.72
2023-03-17T12:55:00.779Z,11.48
2023-03-17T12:58:27.013Z,11.33
2023-03-17T13:01:34.750Z,11.14
2023-03-17T13:04:36.673Z,11.13
2023-03-17T13:07:56.386Z,11.23
2023-03-17T13:11:36.271Z,11.36
2023-03-17T13:14:47.411Z,11.50
2023-03-17T13:17:49.881Z,11.63
2023-03-17T13:20:57.381Z,11.43
2023-03-17T13:24:22.908Z,11.26
2023-03-17T13:27:30.602Z,11.40
2023-03-17T13:30:34.959Z,11.41
2023-03-17T13:33:44.429Z,11.40
2023-03-17T13:37:02.906Z,11.50
2023-03-17T13:40:27.701Z,11.50
2023-03-17T13:43:39.673Z,11.50
2023-03-17T13:46:46.586Z,11.45
2023-03-17T13:49:49.546Z,11.60
2023-03-17T13:53:17.769Z,11.62
2023-03-17T13:56:34.519Z,11.73
2023-03-17T13:59:39.373Z,11.96
2023-03-17T14:02:42.672Z,12.01
2023-03-17T14:05:51.885Z,12.03
2023-03-17T14:08:57.000Z,12.09
2023-03-17T14:12:00.344Z,12.13
2023-03-17T14:15:28.405Z,12.28
2023-03-17T14:18:36.774Z,12.17
2023-03-17T14:21:38.406Z,12.14
2023-03-17T14:24:40.158Z,12.04
2023-03-17T14:27:42.114Z,11.99
2023-03-17T14:30:52.468Z,12.13
2023-03-17T14:33:59.000Z,12.11
2023-03-17T14:37:04.623Z,11.93
2023-03-17T14:40:21.480Z,11.73
2023-03-17T14:43:23.107Z,11.71
2023-03-17T14:46:37.965Z,11.77
2023-03-17T14:49:39.814Z,11.71
2023-03-17T14:52:41.547Z,11.64
2023-03-17T14:55:43.660Z,11.53
2023-03-17T14:58:46.401Z,11.42
2023-03-17T15:01:48.504Z,11.35
2023-03-17T15:04:56.274Z,11.29
2023-03-17T15:07:57.835Z,11.49
2023-03-17T15:11:01.037Z,11.52
2023-03-17T15:14:28.165Z,11.51
2023-03-17T15:17:35.421Z,11.62
2023-03-17T15:20:37.114Z,11.51
2023-03-17T15:23:39.846Z,11.47
2023-03-17T15:26:41.752Z,11.47
2023-03-17T15:29:43.805Z,11.56
2023-03-17T15:32:51.494Z,11.65
2023-03-17T15:35:53.069Z,11.57
2023-03-17T15:38:54.826Z,11.33
2023-03-17T15:41:56.335Z,11.14
2023-03-17T15:44:58.328Z,10.95
2023-03-17T15:47:59.930Z,10.69
2023-03-17T15:51:02.389Z,10.46
2023-03-17T15:54:04.457Z,10.28
2023-03-17T15:57:06.056Z,10.10
2023-03-17T16:00:08.543Z,10.09
2023-03-17T16:03:26.519Z,9.96
2023-03-17T16:06:28.117Z,9.69
2023-03-17T16:09:29.693Z,9.50
2023-03-17T16:12:31.192Z,9.25
2023-03-17T16:15:34.819Z,9.04
2023-03-17T16:18:37.435Z,8.89
2023-03-17T16:21:39.049Z,8.75
2023-03-17T16:24:40.768Z,8.54
2023-03-17T16:27:42.322Z,8.35
2023-03-17T16:30:43.939Z,8.11
2023-03-17T16:33:46.100Z,7.92
2023-03-17T16:36:48.745Z,7.76
2023-03-17T16:39:50.516Z,7.58
2023-03-17T16:42:52.089Z,7.42
2023-03-17T16:45:55.846Z,7.31
2023-03-17T16:48:57.486Z,7.23
2023-03-17T16:51:58.990Z,7.11
2023-03-17T16:55:00.631Z,7.02
2023-03-17T16:58:18.964Z,6.90
2023-03-17T17:01:24.024Z,6.75
2023-03-17T17:04:25.802Z,6.62
2023-03-17T17:07:27.863Z,6.51
2023-03-17T17:10:31.799Z,6.35
2023-03-17T17:13:33.927Z,6.21
2023-03-17T17:16:37.164Z,6.15
2023-03-17T17:19:38.852Z,6.05
2023-03-17T17:22:40.453Z,6.00
2023-03-17T17:25:42.508Z,5.97
2023-03-17T17:29:02.965Z,5.91
2023-03-17T17:32:04.765Z,5.81
2023-03-17T17:35:07.664Z,5.68
2023-03-17T17:38:19.042Z,5.56
2023-03-17T17:41:20.696Z,5.43
2023-03-17T17:44:22.269Z,5.28
2023-03-17T17:47:23.990Z,5.28
2023-03-17T17:50:29.277Z,5.28
2023-03-17T17:53:30.971Z,5.27
2023-03-17T17:56:32.542Z,5.24
2023-03-17T17:59:34.068Z,5.18
2023-03-17T18:02:35.738Z,5.17
2023-03-17T18:05:37.380Z,5.12
2023-03-17T18:08:39.172Z,5.03
2023-03-17T18:11:41.217Z,4.99
2023-03-17T18:14:42.821Z,4.94
2023-03-17T18:17:44.317Z,4.89
2023-03-17T18:20:45.920Z,4.85
2023-03-17T18:23:47.593Z,4.73
2023-03-17T18:26:49.121Z,4.72
2023-03-17T18:29:50.740Z,4.71
2023-03-17T18:32:53.520Z,4.66
2023-03-17T18:35:55.210Z,4.56
2023-03-17T18:38:56.871Z,4.50
2023-03-17T18:41:58.408Z,4.45
2023-03-17T18:44:59.966Z,4.34
2023-03-17T18:48:01.877Z,4.15
2023-03-17T18:51:03.628Z,3.99
2023-03-17T18:54:05.178Z,3.86
2023-03-17T18:57:06.981Z,3.71
2023-03-17T19:00:11.637Z,3.50
2023-03-17T19:03:13.393Z,3.27
2023-03-17T19:06:17.898Z,3.03
2023-03-17T19:09:19.453Z,2.84
2023-03-17T19:12:21.070Z,2.76
2023-03-17T19:15:23.661Z,2.66
2023-03-17T19:18:25.291Z,2.52
2023-03-17T19:21:27.129Z,2.38
2023-03-17T19:24:28.667Z,2.31
2023-03-17T19:27:30.216Z,2.24
2023-03-17T19:30:32.293Z,2.15
2023-03-17T19:33:34.163Z,2.01
2023-03-17T19:36:36.142Z,1.93
2023-03-17T19:39:37.964Z,1.91
2023-03-17T19:42:39.466Z,1.92
2023-03-17T19:45:41.054Z,1.95
2023-03-17T19:48:42.711Z,2.02
2023-03-17T19:51:44.365Z,2.07
2023-03-17T19:54:46.210Z,2.13
2023-03-17T19:57:48.848Z,2.14
2023-03-17T20:00:50.464Z,2.13
2023-03-17T20:03:52.034Z,2.09
2023-03-17T20:06:53.613Z,2.02
2023-03-17T20:09:55.137Z,1.99
2023-03-17T20:12:56.865Z,1.94
2023-03-17T20:15:58.608Z,1.89
2023-03-17T20:19:00.752Z,1.88
2023-03-17T20:22:02.380Z,1.87
2023-03-17T20:25:05.373Z,1.81
2023-03-17T20:28:06.938Z,1.74
2023-03-17T20:31:08.861Z,1.69
2023-03-17T20:34:10.900Z,1.64
2023-03-17T20:37:12.606Z,1.60
2023-03-17T20:40:14.195Z,1.55
2023-03-17T20:43:16.064Z,1.53
2023-03-17T20:46:22.460Z,1.52
2023-03-17T20:49:24.458Z,1.48
2023-03-17T20:52:29.985Z,1.47
2023-03-17T20:55:31.946Z,1.42
2023-03-17T20:58:33.528Z,1.40
2023-03-17T21:01:36.942Z,1.36
2023-03-17T21:04:38.488Z,1.30
2023-03-17T21:07:40.096Z,1.23
2023-03-17T21:10:41.740Z,1.15
2023-03-17T21:13:43.410Z,1.11
2023-03-17T21:16:44.933Z,1.09
2023-03-17T21:19:46.608Z,1.05
2023-03-17T21:22:48.753Z,1.00
2023-03-17T21:25:56.483Z,0.92
2023-03-17T21:28:58.094Z,0.91
2023-03-17T21:32:01.225Z,0.91
2023-03-17T21:35:03.056Z,0.87
2023-03-17T21:38:04.656Z,0.84
2023-03-17T21:41:32.316Z,0.77
2023-03-17T21:44:33.920Z,0.72
2023-03-17T21:47:35.624Z,0.68
2023-03-17T21:50:37.233Z,0.84
2023-03-17T21:53:39.153Z,0.92
2023-03-17T21:56:41.064Z,0.95
2023-03-17T21:59:42.644Z,0.96
2023-03-17T22:02:44.176Z,0.97
2023-03-17T22:05:45.878Z,0.96
2023-03-17T22:08:47.864Z,0.93
2023-03-17T22:11:49.440Z,0.89
2023-03-17T22:14:52.885Z,0.83
2023-03-17T22:17:54.392Z,0.76
2023-03-17T22:20:57.092Z,0.68
2023-03-17T22:23:58.637Z,0.59
2023-03-17T22:27:00.345Z,0.48
2023-03-17T22:30:01.970Z,0.36
2023-03-17T22:33:03.639Z,0.26
2023-03-17T22:36:06.411Z,0.14
2023-03-17T22:39:07.984Z,0.07
2023-03-17T22:42:09.771Z,0.00
2023-03-17T22:45:13.102Z,-0.05
2023-03-17T22:48:14.902Z,-0.10
2023-03-17T22:51:22.327Z,-0.15
2023-03-17T22:54:23.921Z,-0.15
2023-03-17T22:57:25.439Z,-0.12
2023-03-17T23:00:27.068Z,-0.10
2023-03-17T23:03:28.749Z,-0.09
2023-03-17T23:06:30.365Z,-0.09
2023-03-17T23:09:32.489Z,-0.10
2023-03-17T23:12:35.638Z,-0.08
2023-03-17T23:15:37.537Z,-0.05
2023-03-17T23:18:38.996Z,-0.04
2023-03-17T23:21:40.852Z,-0.05
2023-03-17T23:24:42.339Z,-0.06
2023-03-17T23:27:44.240Z,-0.09
2023-03-17T23:30:46.212Z,-0.11
2023-03-17T23:33:49.374Z,-0.14
2023-03-17T23:36:50.969Z,-0.15
2023-03-17T23:39:52.786Z,-0.15
2023-03-17T23:42:54.298Z,-0.16
2023-03-17T23:45:55.919Z,-0.17
2023-03-17T23:48:57.580Z,-0.18
2023-03-17T23:51:59.180Z,-0.21
2023-03-17T23:55:00.742Z,-0.25
2023-03-17T23:58:02.656Z,-0.28
